sensor_id;sensor_type;location;lat;lon;timestamp;P1;durP1;ratioP1;P2;durP2;ratioP2
5923;SDS011;2987;50.884;14.818;2022-09-17T00:00:17;3.13;;;2.60;;
5923;SDS011;2987;50.884;14.818;2022-09-17T00:02:43;4.37;;;2.57;;
5923;SDS011;2987;50.884;14.818;2022-09-17T00:05:11;3.90;;;2.90;;
5923;SDS011;2987;50.884;14.818;2022-09-17T00:07:38;5.43;;;2.60;;
5923;SDS011;2987;50.884;14.818;2022-09-17T00:10:04;7.67;;;2.67;;
5923;SDS011;2987;50.884;14.818;2022-09-17T00:12:30;3.47;;;2.43;;
5923;SDS011;2987;50.884;14.818;2022-09-17T00:14:57;3.73;;;2.40;;
5923;SDS011;2987;50.884;14.818;2022-09-17T00:17:23;4.57;;;2.37;;
5923;SDS011;2987;50.884;14.818;2022-09-17T00:19:49;7.40;;;2.60;;
5923;SDS011;2987;50.884;14.818;2022-09-17T00:22:15;5.03;;;2.70;;
5923;SDS011;2987;50.884;14.818;2022-09-17T00:24:41;5.73;;;2.17;;
5923;SDS011;2987;50.884;14.818;2022-09-17T00:27:08;3.90;;;2.60;;
5923;SDS011;2987;50.884;14.818;2022-09-17T00:29:34;4.33;;;2.50;;
5923;SDS011;2987;50.884;14.818;2022-09-17T00:32:00;5.80;;;2.67;;
5923;SDS011;2987;50.884;14.818;2022-09-17T00:34:26;3.33;;;2.60;;
5923;SDS011;2987;50.884;14.818;2022-09-17T00:36:52;4.93;;;2.30;;
5923;SDS011;2987;50.884;14.818;2022-09-17T00:39:18;5.63;;;2.30;;
5923;SDS011;2987;50.884;14.818;2022-09-17T00:41:44;2.97;;;1.90;;
5923;SDS011;2987;50.884;14.818;2022-09-17T00:49:51;5.53;;;2.37;;
5923;SDS011;2987;50.884;14.818;2022-09-17T00:52:24;3.57;;;2.33;;
5923;SDS011;2987;50.884;14.818;2022-09-17T00:54:57;3.20;;;2.20;;
5923;SDS011;2987;50.884;14.818;2022-09-17T00:57:27;5.20;;;2.13;;
5923;SDS011;2987;50.884;14.818;2022-09-17T00:59:55;7.60;;;2.37;;
5923;SDS011;2987;50.884;14.818;2022-09-17T01:02:22;9.03;;;2.53;;
5923;SDS011;2987;50.884;14.818;2022-09-17T01:04:49;4.80;;;2.50;;
5923;SDS011;2987;50.884;14.818;2022-09-17T01:07:27;4.33;;;2.20;;
5923;SDS011;2987;50.884;14.818;2022-09-17T01:10:14;9.43;;;2.50;;
5923;SDS011;2987;50.884;14.818;2022-09-17T01:15:48;4.90;;;2.30;;
5923;SDS011;2987;50.884;14.818;2022-09-17T01:18:27;4.40;;;3.13;;
5923;SDS011;2987;50.884;14.818;2022-09-17T01:26:39;3.17;;;2.30;;
5923;SDS011;2987;50.884;14.818;2022-09-17T01:32:04;4.97;;;2.27;;
5923;SDS011;2987;50.884;14.818;2022-09-17T01:34:48;9.30;;;2.73;;
5923;SDS011;2987;50.884;14.818;2022-09-17T01:42:56;4.30;;;2.10;;
5923;SDS011;2987;50.884;14.818;2022-09-17T01:45:48;5.00;;;2.10;;
5923;SDS011;2987;50.884;14.818;2022-09-17T01:50:50;3.40;;;2.20;;
5923;SDS011;2987;50.884;14.818;2022-09-17T01:53:22;7.37;;;2.77;;
5923;SDS011;2987;50.884;14.818;2022-09-17T01:55:54;5.37;;;2.43;;
5923;SDS011;2987;50.884;14.818;2022-09-17T01:58:25;4.63;;;2.30;;
5923;SDS011;2987;50.884;14.818;2022-09-17T02:00:59;3.03;;;2.57;;
5923;SDS011;2987;50.884;14.818;2022-09-17T02:03:31;3.63;;;2.10;;
5923;SDS011;2987;50.884;14.818;2022-09-17T02:06:04;4.20;;;2.70;;
5923;SDS011;2987;50.884;14.818;2022-09-17T02:08:34;6.53;;;2.97;;
5923;SDS011;2987;50.884;14.818;2022-09-17T02:11:08;2.60;;;2.07;;
5923;SDS011;2987;50.884;14.818;2022-09-17T02:13:43;4.60;;;2.47;;
5923;SDS011;2987;50.884;14.818;2022-09-17T02:16:18;4.83;;;2.67;;
5923;SDS011;2987;50.884;14.818;2022-09-17T02:18:54;6.00;;;2.60;;
5923;SDS011;2987;50.884;14.818;2022-09-17T02:21:29;6.23;;;2.40;;
5923;SDS011;2987;50.884;14.818;2022-09-17T02:24:08;5.23;;;2.30;;
5923;SDS011;2987;50.884;14.818;2022-09-17T02:26:44;7.80;;;2.40;;
5923;SDS011;2987;50.884;14.818;2022-09-17T02:29:23;2.77;;;2.23;;
5923;SDS011;2987;50.884;14.818;2022-09-17T02:31:54;6.00;;;2.83;;
5923;SDS011;2987;50.884;14.818;2022-09-17T02:34:20;5.67;;;2.40;;
5923;SDS011;2987;50.884;14.818;2022-09-17T02:36:53;4.30;;;2.37;;
5923;SDS011;2987;50.884;14.818;2022-09-17T02:39:20;5.00;;;2.20;;
5923;SDS011;2987;50.884;14.818;2022-09-17T02:41:51;5.70;;;2.37;;
5923;SDS011;2987;50.884;14.818;2022-09-17T02:47:30;6.30;;;2.40;;
5923;SDS011;2987;50.884;14.818;2022-09-17T02:50:14;5.30;;;2.30;;
5923;SDS011;2987;50.884;14.818;2022-09-17T02:58:20;10.70;;;2.50;;
5923;SDS011;2987;50.884;14.818;2022-09-17T03:01:00;4.10;;;2.40;;
5923;SDS011;2987;50.884;14.818;2022-09-17T03:06:04;5.43;;;2.50;;
5923;SDS011;2987;50.884;14.818;2022-09-17T03:08:33;7.77;;;2.40;;
5923;SDS011;2987;50.884;14.818;2022-09-17T03:11:04;8.70;;;2.00;;
5923;SDS011;2987;50.884;14.818;2022-09-17T03:13:34;6.23;;;1.93;;
5923;SDS011;2987;50.884;14.818;2022-09-17T03:16:01;4.10;;;2.10;;
5923;SDS011;2987;50.884;14.818;2022-09-17T03:18:31;6.20;;;2.30;;
5923;SDS011;2987;50.884;14.818;2022-09-17T03:20:57;9.13;;;2.10;;
5923;SDS011;2987;50.884;14.818;2022-09-17T03:23:23;2.00;;;1.87;;
5923;SDS011;2987;50.884;14.818;2022-09-17T03:25:50;5.93;;;2.07;;
5923;SDS011;2987;50.884;14.818;2022-09-17T03:28:16;3.20;;;1.93;;
5923;SDS011;2987;50.884;14.818;2022-09-17T03:30:43;5.43;;;2.33;;
5923;SDS011;2987;50.884;14.818;2022-09-17T03:33:11;5.07;;;2.07;;
5923;SDS011;2987;50.884;14.818;2022-09-17T03:35:41;6.43;;;2.10;;
5923;SDS011;2987;50.884;14.818;2022-09-17T03:38:08;5.23;;;2.00;;
5923;SDS011;2987;50.884;14.818;2022-09-17T03:40:34;4.53;;;2.13;;
5923;SDS011;2987;50.884;14.818;2022-09-17T03:43:00;3.70;;;1.87;;
5923;SDS011;2987;50.884;14.818;2022-09-17T03:45:26;4.57;;;2.30;;
5923;SDS011;2987;50.884;14.818;2022-09-17T03:47:52;7.17;;;2.20;;
5923;SDS011;2987;50.884;14.818;2022-09-17T03:50:20;6.13;;;2.10;;
5923;SDS011;2987;50.884;14.818;2022-09-17T03:52:47;4.53;;;2.27;;
5923;SDS011;2987;50.884;14.818;2022-09-17T03:55:13;4.43;;;1.90;;
5923;SDS011;2987;50.884;14.818;2022-09-17T03:57:40;7.57;;;2.13;;
5923;SDS011;2987;50.884;14.818;2022-09-17T04:00:06;4.23;;;2.57;;
5923;SDS011;2987;50.884;14.818;2022-09-17T04:02:37;6.27;;;2.03;;
5923;SDS011;2987;50.884;14.818;2022-09-17T04:05:04;4.77;;;2.17;;
5923;SDS011;2987;50.884;14.818;2022-09-17T04:07:31;3.03;;;1.90;;
5923;SDS011;2987;50.884;14.818;2022-09-17T04:09:57;3.73;;;1.80;;
5923;SDS011;2987;50.884;14.818;2022-09-17T04:12:23;5.70;;;2.03;;
5923;SDS011;2987;50.884;14.818;2022-09-17T04:14:50;8.40;;;2.57;;
5923;SDS011;2987;50.884;14.818;2022-09-17T04:17:16;5.23;;;1.70;;
5923;SDS011;2987;50.884;14.818;2022-09-17T04:19:43;5.93;;;1.93;;
5923;SDS011;2987;50.884;14.818;2022-09-17T04:22:09;5.23;;;2.00;;
5923;SDS011;2987;50.884;14.818;2022-09-17T04:24:36;4.40;;;2.03;;
5923;SDS011;2987;50.884;14.818;2022-09-17T04:27:02;3.50;;;1.70;;
5923;SDS011;2987;50.884;14.818;2022-09-17T04:29:28;5.63;;;2.00;;
5923;SDS011;2987;50.884;14.818;2022-09-17T04:31:55;7.63;;;2.50;;
5923;SDS011;2987;50.884;14.818;2022-09-17T04:34:21;4.33;;;1.67;;
5923;SDS011;2987;50.884;14.818;2022-09-17T04:36:47;5.03;;;1.80;;
5923;SDS011;2987;50.884;14.818;2022-09-17T04:39:13;4.57;;;1.80;;
5923;SDS011;2987;50.884;14.818;2022-09-17T04:41:39;5.07;;;1.83;;
5923;SDS011;2987;50.884;14.818;2022-09-17T04:44:08;4.03;;;1.30;;
5923;SDS011;2987;50.884;14.818;2022-09-17T04:46:34;10.87;;;2.03;;
5923;SDS011;2987;50.884;14.818;2022-09-17T04:49:00;5.03;;;1.80;;
5923;SDS011;2987;50.884;14.818;2022-09-17T04:51:26;4.97;;;1.77;;
5923;SDS011;2987;50.884;14.818;2022-09-17T04:53:52;4.83;;;1.80;;
5923;SDS011;2987;50.884;14.818;2022-09-17T04:56:18;5.87;;;1.50;;
5923;SDS011;2987;50.884;14.818;2022-09-17T04:58:45;3.87;;;1.40;;
5923;SDS011;2987;50.884;14.818;2022-09-17T05:01:11;3.63;;;1.83;;
5923;SDS011;2987;50.884;14.818;2022-09-17T05:03:38;3.03;;;1.70;;
5923;SDS011;2987;50.884;14.818;2022-09-17T05:06:04;2.97;;;1.77;;
5923;SDS011;2987;50.884;14.818;2022-09-17T05:08:30;5.83;;;1.80;;
5923;SDS011;2987;50.884;14.818;2022-09-17T05:10:56;4.07;;;1.47;;
5923;SDS011;2987;50.884;14.818;2022-09-17T05:13:22;4.27;;;1.80;;
5923;SDS011;2987;50.884;14.818;2022-09-17T05:15:49;5.00;;;1.67;;
5923;SDS011;2987;50.884;14.818;2022-09-17T05:18:15;5.57;;;1.70;;
5923;SDS011;2987;50.884;14.818;2022-09-17T05:20:41;5.20;;;1.87;;
5923;SDS011;2987;50.884;14.818;2022-09-17T05:23:07;6.70;;;1.80;;
5923;SDS011;2987;50.884;14.818;2022-09-17T05:25:33;5.13;;;1.70;;
5923;SDS011;2987;50.884;14.818;2022-09-17T05:28:00;3.77;;;1.93;;
5923;SDS011;2987;50.884;14.818;2022-09-17T05:30:26;6.47;;;2.00;;
5923;SDS011;2987;50.884;14.818;2022-09-17T05:33:00;4.93;;;1.60;;
5923;SDS011;2987;50.884;14.818;2022-09-17T05:35:29;3.10;;;1.63;;
5923;SDS011;2987;50.884;14.818;2022-09-17T05:37:57;5.10;;;1.80;;
5923;SDS011;2987;50.884;14.818;2022-09-17T05:40:27;4.87;;;1.70;;
5923;SDS011;2987;50.884;14.818;2022-09-17T05:42:57;5.10;;;2.20;;
5923;SDS011;2987;50.884;14.818;2022-09-17T05:45:24;3.83;;;1.83;;
5923;SDS011;2987;50.884;14.818;2022-09-17T05:47:54;3.33;;;1.90;;
5923;SDS011;2987;50.884;14.818;2022-09-17T05:50:22;2.43;;;2.20;;
5923;SDS011;2987;50.884;14.818;2022-09-17T05:52:51;3.27;;;1.70;;
5923;SDS011;2987;50.884;14.818;2022-09-17T05:55:18;4.13;;;1.83;;
5923;SDS011;2987;50.884;14.818;2022-09-17T05:57:47;4.10;;;2.40;;
5923;SDS011;2987;50.884;14.818;2022-09-17T06:00:15;3.87;;;2.20;;
5923;SDS011;2987;50.884;14.818;2022-09-17T06:02:41;5.23;;;1.90;;
5923;SDS011;2987;50.884;14.818;2022-09-17T06:05:08;4.83;;;2.10;;
5923;SDS011;2987;50.884;14.818;2022-09-17T06:07:35;2.90;;;1.90;;
5923;SDS011;2987;50.884;14.818;2022-09-17T06:10:04;6.80;;;2.57;;
5923;SDS011;2987;50.884;14.818;2022-09-17T06:12:33;7.87;;;2.40;;
5923;SDS011;2987;50.884;14.818;2022-09-17T06:15:00;4.57;;;2.40;;
5923;SDS011;2987;50.884;14.818;2022-09-17T06:17:27;3.67;;;2.10;;
5923;SDS011;2987;50.884;14.818;2022-09-17T06:19:57;3.17;;;2.00;;
5923;SDS011;2987;50.884;14.818;2022-09-17T06:22:25;5.33;;;2.53;;
5923;SDS011;2987;50.884;14.818;2022-09-17T06:24:51;3.33;;;2.30;;
5923;SDS011;2987;50.884;14.818;2022-09-17T06:27:18;6.03;;;2.00;;
5923;SDS011;2987;50.884;14.818;2022-09-17T06:29:44;9.50;;;2.50;;
5923;SDS011;2987;50.884;14.818;2022-09-17T06:32:10;2.73;;;2.10;;
5923;SDS011;2987;50.884;14.818;2022-09-17T06:34:40;11.30;;;3.00;;
5923;SDS011;2987;50.884;14.818;2022-09-17T06:37:06;3.33;;;2.40;;
5923;SDS011;2987;50.884;14.818;2022-09-17T06:39:32;3.00;;;2.13;;
5923;SDS011;2987;50.884;14.818;2022-09-17T06:41:58;6.03;;;1.93;;
5923;SDS011;2987;50.884;14.818;2022-09-17T06:44:27;5.10;;;2.20;;
5923;SDS011;2987;50.884;14.818;2022-09-17T06:46:53;2.83;;;2.10;;
5923;SDS011;2987;50.884;14.818;2022-09-17T06:49:22;4.77;;;2.30;;
5923;SDS011;2987;50.884;14.818;2022-09-17T06:51:48;3.83;;;2.50;;
5923;SDS011;2987;50.884;14.818;2022-09-17T06:54:15;4.60;;;2.23;;
5923;SDS011;2987;50.884;14.818;2022-09-17T06:56:41;3.10;;;2.13;;
5923;SDS011;2987;50.884;14.818;2022-09-17T06:59:07;2.50;;;1.80;;
5923;SDS011;2987;50.884;14.818;2022-09-17T07:01:33;4.47;;;2.03;;
5923;SDS011;2987;50.884;14.818;2022-09-17T07:03:59;7.17;;;2.10;;
5923;SDS011;2987;50.884;14.818;2022-09-17T07:06:26;4.17;;;1.73;;
5923;SDS011;2987;50.884;14.818;2022-09-17T07:08:52;3.43;;;1.97;;
5923;SDS011;2987;50.884;14.818;2022-09-17T07:11:18;2.97;;;1.83;;
5923;SDS011;2987;50.884;14.818;2022-09-17T07:13:44;3.17;;;1.67;;
5923;SDS011;2987;50.884;14.818;2022-09-17T07:16:10;2.23;;;1.60;;
5923;SDS011;2987;50.884;14.818;2022-09-17T07:18:36;4.80;;;2.20;;
5923;SDS011;2987;50.884;14.818;2022-09-17T07:21:04;2.13;;;1.90;;
5923;SDS011;2987;50.884;14.818;2022-09-17T07:23:32;3.53;;;2.17;;
5923;SDS011;2987;50.884;14.818;2022-09-17T07:26:00;2.13;;;1.80;;
5923;SDS011;2987;50.884;14.818;2022-09-17T07:28:32;4.03;;;1.53;;
5923;SDS011;2987;50.884;14.818;2022-09-17T07:31:02;3.23;;;1.60;;
5923;SDS011;2987;50.884;14.818;2022-09-17T07:33:30;3.87;;;1.70;;
5923;SDS011;2987;50.884;14.818;2022-09-17T07:35:59;1.63;;;1.50;;
5923;SDS011;2987;50.884;14.818;2022-09-17T07:38:28;1.73;;;1.40;;
5923;SDS011;2987;50.884;14.818;2022-09-17T07:40:56;1.33;;;1.23;;
5923;SDS011;2987;50.884;14.818;2022-09-17T07:43:25;2.80;;;1.30;;
5923;SDS011;2987;50.884;14.818;2022-09-17T07:45:53;1.90;;;1.03;;
5923;SDS011;2987;50.884;14.818;2022-09-17T07:48:21;1.43;;;1.33;;
5923;SDS011;2987;50.884;14.818;2022-09-17T07:50:48;1.33;;;1.10;;
5923;SDS011;2987;50.884;14.818;2022-09-17T07:53:15;1.27;;;0.90;;
5923;SDS011;2987;50.884;14.818;2022-09-17T07:55:41;1.53;;;1.20;;
5923;SDS011;2987;50.884;14.818;2022-09-17T07:58:15;0.93;;;0.90;;
5923;SDS011;2987;50.884;14.818;2022-09-17T08:00:41;1.23;;;1.07;;
5923;SDS011;2987;50.884;14.818;2022-09-17T08:03:08;1.20;;;1.20;;
5923;SDS011;2987;50.884;14.818;2022-09-17T08:05:34;1.93;;;1.70;;
5923;SDS011;2987;50.884;14.818;2022-09-17T08:08:00;1.80;;;1.70;;
5923;SDS011;2987;50.884;14.818;2022-09-17T08:10:27;2.10;;;1.20;;
5923;SDS011;2987;50.884;14.818;2022-09-17T08:12:54;1.43;;;1.00;;
5923;SDS011;2987;50.884;14.818;2022-09-17T08:15:22;1.20;;;1.10;;
5923;SDS011;2987;50.884;14.818;2022-09-17T08:17:49;1.20;;;1.20;;
5923;SDS011;2987;50.884;14.818;2022-09-17T08:20:16;1.93;;;1.17;;
5923;SDS011;2987;50.884;14.818;2022-09-17T08:25:35;2.53;;;1.03;;
5923;SDS011;2987;50.884;14.818;2022-09-17T08:28:01;1.20;;;1.10;;
5923;SDS011;2987;50.884;14.818;2022-09-17T08:30:27;1.50;;;1.40;;
5923;SDS011;2987;50.884;14.818;2022-09-17T08:32:54;3.03;;;1.33;;
5923;SDS011;2987;50.884;14.818;2022-09-17T08:35:22;1.20;;;0.93;;
5923;SDS011;2987;50.884;14.818;2022-09-17T08:37:48;1.50;;;0.90;;
5923;SDS011;2987;50.884;14.818;2022-09-17T08:40:16;1.60;;;0.70;;
5923;SDS011;2987;50.884;14.818;2022-09-17T08:42:51;2.23;;;0.80;;
5923;SDS011;2987;50.884;14.818;2022-09-17T08:45:26;1.10;;;1.00;;
5923;SDS011;2987;50.884;14.818;2022-09-17T08:47:54;1.20;;;0.77;;
5923;SDS011;2987;50.884;14.818;2022-09-17T08:50:28;0.90;;;0.90;;
5923;SDS011;2987;50.884;14.818;2022-09-17T08:53:05;0.93;;;0.83;;
5923;SDS011;2987;50.884;14.818;2022-09-17T08:55:42;0.70;;;0.70;;
5923;SDS011;2987;50.884;14.818;2022-09-17T09:03:56;0.73;;;0.70;;
5923;SDS011;2987;50.884;14.818;2022-09-17T09:11:40;2.10;;;1.10;;
5923;SDS011;2987;50.884;14.818;2022-09-17T09:16:38;0.73;;;0.73;;
5923;SDS011;2987;50.884;14.818;2022-09-17T09:19:13;0.90;;;0.90;;
5923;SDS011;2987;50.884;14.818;2022-09-17T09:21:50;0.90;;;0.90;;
5923;SDS011;2987;50.884;14.818;2022-09-17T09:24:48;1.00;;;1.00;;
5923;SDS011;2987;50.884;14.818;2022-09-17T09:27:26;1.43;;;1.20;;
5923;SDS011;2987;50.884;14.818;2022-09-17T09:30:00;2.20;;;2.00;;
5923;SDS011;2987;50.884;14.818;2022-09-17T09:32:38;2.70;;;2.07;;
5923;SDS011;2987;50.884;14.818;2022-09-17T09:35:22;1.00;;;1.00;;
5923;SDS011;2987;50.884;14.818;2022-09-17T09:40:27;1.10;;;1.10;;
5923;SDS011;2987;50.884;14.818;2022-09-17T09:43:11;1.43;;;1.30;;
5923;SDS011;2987;50.884;14.818;2022-09-17T09:45:47;1.30;;;1.07;;
5923;SDS011;2987;50.884;14.818;2022-09-17T09:54:12;1.57;;;1.30;;
5923;SDS011;2987;50.884;14.818;2022-09-17T09:56:56;3.03;;;1.43;;
5923;SDS011;2987;50.884;14.818;2022-09-17T10:04:23;3.57;;;1.77;;
5923;SDS011;2987;50.884;14.818;2022-09-17T10:06:52;3.87;;;2.30;;
5923;SDS011;2987;50.884;14.818;2022-09-17T10:09:26;8.60;;;2.40;;
5923;SDS011;2987;50.884;14.818;2022-09-17T10:12:03;3.30;;;2.37;;
5923;SDS011;2987;50.884;14.818;2022-09-17T10:14:42;5.07;;;2.40;;
5923;SDS011;2987;50.884;14.818;2022-09-17T10:17:25;3.87;;;2.20;;
5923;SDS011;2987;50.884;14.818;2022-09-17T10:22:42;5.13;;;2.37;;
5923;SDS011;2987;50.884;14.818;2022-09-17T10:25:27;4.63;;;2.37;;
5923;SDS011;2987;50.884;14.818;2022-09-17T10:27:56;3.83;;;2.53;;
5923;SDS011;2987;50.884;14.818;2022-09-17T10:30:26;6.17;;;2.53;;
5923;SDS011;2987;50.884;14.818;2022-09-17T10:36:04;5.33;;;2.97;;
5923;SDS011;2987;50.884;14.818;2022-09-17T10:38:35;7.60;;;2.93;;
5923;SDS011;2987;50.884;14.818;2022-09-17T10:46:08;7.07;;;4.03;;
5923;SDS011;2987;50.884;14.818;2022-09-17T10:48:43;9.80;;;4.53;;
5923;SDS011;2987;50.884;14.818;2022-09-17T10:51:19;7.13;;;4.73;;
5923;SDS011;2987;50.884;14.818;2022-09-17T10:56:39;11.13;;;4.03;;
5923;SDS011;2987;50.884;14.818;2022-09-17T10:59:18;6.07;;;3.90;;
5923;SDS011;2987;50.884;14.818;2022-09-17T11:15:48;8.93;;;2.80;;
5923;SDS011;2987;50.884;14.818;2022-09-17T11:18:34;7.33;;;2.87;;
5923;SDS011;2987;50.884;14.818;2022-09-17T11:24:05;9.10;;;2.73;;
5923;SDS011;2987;50.884;14.818;2022-09-17T11:26:37;12.63;;;2.93;;
5923;SDS011;2987;50.884;14.818;2022-09-17T11:29:24;9.33;;;2.63;;
5923;SDS011;2987;50.884;14.818;2022-09-17T11:32:36;7.97;;;3.07;;
5923;SDS011;2987;50.884;14.818;2022-09-17T11:40:22;3.67;;;1.60;;
5923;SDS011;2987;50.884;14.818;2022-09-17T11:43:01;3.77;;;1.90;;
5923;SDS011;2987;50.884;14.818;2022-09-17T11:45:37;4.07;;;1.60;;
5923;SDS011;2987;50.884;14.818;2022-09-17T11:48:12;5.30;;;1.97;;
5923;SDS011;2987;50.884;14.818;2022-09-17T11:50:44;7.67;;;2.47;;
5923;SDS011;2987;50.884;14.818;2022-09-17T11:53:18;7.60;;;2.43;;
5923;SDS011;2987;50.884;14.818;2022-09-17T11:55:51;9.57;;;2.47;;
5923;SDS011;2987;50.884;14.818;2022-09-17T11:58:31;6.90;;;2.47;;
5923;SDS011;2987;50.884;14.818;2022-09-17T12:01:23;6.70;;;2.70;;
5923;SDS011;2987;50.884;14.818;2022-09-17T12:12:13;4.90;;;1.70;;
5923;SDS011;2987;50.884;14.818;2022-09-17T12:15:04;3.43;;;1.80;;
5923;SDS011;2987;50.884;14.818;2022-09-17T12:20:14;4.57;;;2.00;;
5923;SDS011;2987;50.884;14.818;2022-09-17T12:22:52;3.00;;;1.70;;
5923;SDS011;2987;50.884;14.818;2022-09-17T12:25:19;5.40;;;1.53;;
5923;SDS011;2987;50.884;14.818;2022-09-17T12:27:52;4.93;;;1.70;;
5923;SDS011;2987;50.884;14.818;2022-09-17T12:30:31;2.40;;;1.53;;
5923;SDS011;2987;50.884;14.818;2022-09-17T12:36:02;2.93;;;1.50;;
5923;SDS011;2987;50.884;14.818;2022-09-17T12:38:51;3.90;;;1.77;;
5923;SDS011;2987;50.884;14.818;2022-09-17T12:53:01;2.20;;;1.00;;
5923;SDS011;2987;50.884;14.818;2022-09-17T13:01:07;4.53;;;1.47;;
5923;SDS011;2987;50.884;14.818;2022-09-17T13:03:48;2.90;;;1.30;;
5923;SDS011;2987;50.884;14.818;2022-09-17T13:12:09;4.97;;;1.73;;
5923;SDS011;2987;50.884;14.818;2022-09-17T13:15:00;3.17;;;1.40;;
5923;SDS011;2987;50.884;14.818;2022-09-17T13:20:30;4.00;;;1.33;;
5923;SDS011;2987;50.884;14.818;2022-09-17T13:23:00;6.57;;;2.40;;
5923;SDS011;2987;50.884;14.818;2022-09-17T13:25:27;5.50;;;1.60;;
5923;SDS011;2987;50.884;14.818;2022-09-17T13:28:09;3.30;;;1.40;;
5923;SDS011;2987;50.884;14.818;2022-09-17T13:30:54;5.63;;;1.60;;
5923;SDS011;2987;50.884;14.818;2022-09-17T13:33:46;6.13;;;2.10;;
5923;SDS011;2987;50.884;14.818;2022-09-17T13:52:45;4.73;;;1.70;;
5923;SDS011;2987;50.884;14.818;2022-09-17T13:55:30;5.30;;;1.53;;
5923;SDS011;2987;50.884;14.818;2022-09-17T13:58:01;6.63;;;1.50;;
5923;SDS011;2987;50.884;14.818;2022-09-17T14:14:35;5.40;;;1.70;;
5923;SDS011;2987;50.884;14.818;2022-09-17T14:17:05;6.33;;;2.17;;
5923;SDS011;2987;50.884;14.818;2022-09-17T14:19:38;5.77;;;1.87;;
5923;SDS011;2987;50.884;14.818;2022-09-17T14:22:22;3.57;;;1.60;;
5923;SDS011;2987;50.884;14.818;2022-09-17T14:24:52;5.53;;;1.90;;
5923;SDS011;2987;50.884;14.818;2022-09-17T14:30:18;3.83;;;2.07;;
5923;SDS011;2987;50.884;14.818;2022-09-17T14:40:43;6.93;;;2.33;;
5923;SDS011;2987;50.884;14.818;2022-09-17T14:48:16;8.93;;;2.03;;
5923;SDS011;2987;50.884;14.818;2022-09-17T14:50:45;5.13;;;1.73;;
5923;SDS011;2987;50.884;14.818;2022-09-17T14:53:13;3.87;;;1.60;;
5923;SDS011;2987;50.884;14.818;2022-09-17T14:55:43;4.57;;;1.60;;
5923;SDS011;2987;50.884;14.818;2022-09-17T15:01:01;10.37;;;2.13;;
5923;SDS011;2987;50.884;14.818;2022-09-17T15:08:21;3.97;;;1.50;;
5923;SDS011;2987;50.884;14.818;2022-09-17T15:10:54;4.47;;;1.50;;
5923;SDS011;2987;50.884;14.818;2022-09-17T15:13:36;5.00;;;1.63;;
5923;SDS011;2987;50.884;14.818;2022-09-17T15:16:16;4.40;;;1.60;;
5923;SDS011;2987;50.884;14.818;2022-09-17T15:18:49;3.80;;;1.83;;
5923;SDS011;2987;50.884;14.818;2022-09-17T15:24:17;5.57;;;1.90;;
5923;SDS011;2987;50.884;14.818;2022-09-17T15:26:57;4.07;;;1.80;;
5923;SDS011;2987;50.884;14.818;2022-09-17T15:34:31;4.53;;;2.23;;
5923;SDS011;2987;50.884;14.818;2022-09-17T15:39:46;8.00;;;2.40;;
5923;SDS011;2987;50.884;14.818;2022-09-17T15:44:42;6.50;;;2.37;;
5923;SDS011;2987;50.884;14.818;2022-09-17T15:57:59;5.97;;;2.30;;
5923;SDS011;2987;50.884;14.818;2022-09-17T16:00:27;5.90;;;2.03;;
5923;SDS011;2987;50.884;14.818;2022-09-17T16:02:54;7.43;;;2.07;;
5923;SDS011;2987;50.884;14.818;2022-09-17T16:08:16;6.63;;;2.40;;
5923;SDS011;2987;50.884;14.818;2022-09-17T16:10:43;9.43;;;2.87;;
5923;SDS011;2987;50.884;14.818;2022-09-17T16:13:09;5.80;;;2.13;;
5923;SDS011;2987;50.884;14.818;2022-09-17T16:15:35;8.03;;;2.20;;
5923;SDS011;2987;50.884;14.818;2022-09-17T16:18:01;8.93;;;2.40;;
5923;SDS011;2987;50.884;14.818;2022-09-17T16:20:28;3.40;;;1.63;;
5923;SDS011;2987;50.884;14.818;2022-09-17T16:22:54;5.37;;;2.00;;
5923;SDS011;2987;50.884;14.818;2022-09-17T16:25:23;5.40;;;2.13;;
5923;SDS011;2987;50.884;14.818;2022-09-17T16:27:52;4.77;;;2.10;;
5923;SDS011;2987;50.884;14.818;2022-09-17T16:30:22;7.43;;;2.07;;
5923;SDS011;2987;50.884;14.818;2022-09-17T16:32:49;5.67;;;2.00;;
5923;SDS011;2987;50.884;14.818;2022-09-17T16:35:17;7.43;;;2.20;;
5923;SDS011;2987;50.884;14.818;2022-09-17T16:37:48;6.53;;;1.97;;
5923;SDS011;2987;50.884;14.818;2022-09-17T16:40:16;3.90;;;1.97;;
5923;SDS011;2987;50.884;14.818;2022-09-17T16:42:46;6.53;;;2.37;;
5923;SDS011;2987;50.884;14.818;2022-09-17T16:45:13;6.07;;;2.53;;
5923;SDS011;2987;50.884;14.818;2022-09-17T16:47:40;9.57;;;2.43;;
5923;SDS011;2987;50.884;14.818;2022-09-17T16:50:08;6.57;;;2.17;;
5923;SDS011;2987;50.884;14.818;2022-09-17T16:52:36;5.60;;;2.20;;
5923;SDS011;2987;50.884;14.818;2022-09-17T16:55:03;5.07;;;1.80;;
5923;SDS011;2987;50.884;14.818;2022-09-17T16:57:31;5.90;;;2.53;;
5923;SDS011;2987;50.884;14.818;2022-09-17T16:59:58;6.53;;;1.90;;
5923;SDS011;2987;50.884;14.818;2022-09-17T17:02:24;4.63;;;1.90;;
5923;SDS011;2987;50.884;14.818;2022-09-17T17:04:51;7.67;;;1.77;;
5923;SDS011;2987;50.884;14.818;2022-09-17T17:07:18;5.70;;;2.40;;
5923;SDS011;2987;50.884;14.818;2022-09-17T17:09:44;6.50;;;2.60;;
5923;SDS011;2987;50.884;14.818;2022-09-17T17:12:10;5.60;;;2.10;;
5923;SDS011;2987;50.884;14.818;2022-09-17T17:14:36;5.23;;;1.80;;
5923;SDS011;2987;50.884;14.818;2022-09-17T17:17:02;5.67;;;2.17;;
5923;SDS011;2987;50.884;14.818;2022-09-17T17:19:29;10.10;;;2.70;;
5923;SDS011;2987;50.884;14.818;2022-09-17T17:21:55;6.40;;;2.40;;
5923;SDS011;2987;50.884;14.818;2022-09-17T17:24:21;4.20;;;1.90;;
5923;SDS011;2987;50.884;14.818;2022-09-17T17:26:48;8.83;;;2.20;;
5923;SDS011;2987;50.884;14.818;2022-09-17T17:29:14;6.10;;;2.70;;
5923;SDS011;2987;50.884;14.818;2022-09-17T17:31:41;6.07;;;2.87;;
5923;SDS011;2987;50.884;14.818;2022-09-17T17:34:07;6.67;;;2.60;;
5923;SDS011;2987;50.884;14.818;2022-09-17T17:36:33;7.23;;;2.57;;
5923;SDS011;2987;50.884;14.818;2022-09-17T17:39:00;10.00;;;2.53;;
5923;SDS011;2987;50.884;14.818;2022-09-17T17:41:26;8.93;;;2.67;;
5923;SDS011;2987;50.884;14.818;2022-09-17T17:43:53;10.60;;;2.40;;
5923;SDS011;2987;50.884;14.818;2022-09-17T17:46:20;10.17;;;2.50;;
5923;SDS011;2987;50.884;14.818;2022-09-17T17:48:48;9.43;;;2.30;;
5923;SDS011;2987;50.884;14.818;2022-09-17T17:51:15;5.87;;;2.50;;
5923;SDS011;2987;50.884;14.818;2022-09-17T17:53:44;6.47;;;2.23;;
5923;SDS011;2987;50.884;14.818;2022-09-17T17:56:11;4.77;;;2.40;;
5923;SDS011;2987;50.884;14.818;2022-09-17T17:58:38;6.63;;;1.90;;
5923;SDS011;2987;50.884;14.818;2022-09-17T18:01:09;4.83;;;2.00;;
5923;SDS011;2987;50.884;14.818;2022-09-17T18:03:37;5.63;;;2.07;;
5923;SDS011;2987;50.884;14.818;2022-09-17T18:06:06;6.70;;;2.33;;
5923;SDS011;2987;50.884;14.818;2022-09-17T18:08:35;5.90;;;2.03;;
5923;SDS011;2987;50.884;14.818;2022-09-17T18:11:03;6.40;;;2.00;;
5923;SDS011;2987;50.884;14.818;2022-09-17T18:13:34;6.60;;;2.20;;
5923;SDS011;2987;50.884;14.818;2022-09-17T18:16:01;4.43;;;2.07;;
5923;SDS011;2987;50.884;14.818;2022-09-17T18:18:30;7.20;;;2.37;;
5923;SDS011;2987;50.884;14.818;2022-09-17T18:20:59;5.53;;;2.10;;
5923;SDS011;2987;50.884;14.818;2022-09-17T18:23:27;8.80;;;2.60;;
5923;SDS011;2987;50.884;14.818;2022-09-17T18:25:55;8.63;;;2.83;;
5923;SDS011;2987;50.884;14.818;2022-09-17T18:28:22;5.13;;;2.60;;
5923;SDS011;2987;50.884;14.818;2022-09-17T18:30:49;7.00;;;3.30;;
5923;SDS011;2987;50.884;14.818;2022-09-17T18:33:16;10.30;;;2.70;;
5923;SDS011;2987;50.884;14.818;2022-09-17T18:35:45;10.87;;;2.50;;
5923;SDS011;2987;50.884;14.818;2022-09-17T18:38:12;6.10;;;2.23;;
5923;SDS011;2987;50.884;14.818;2022-09-17T18:40:40;9.17;;;2.70;;
5923;SDS011;2987;50.884;14.818;2022-09-17T18:43:06;9.83;;;2.00;;
5923;SDS011;2987;50.884;14.818;2022-09-17T18:45:33;4.97;;;2.00;;
5923;SDS011;2987;50.884;14.818;2022-09-17T18:47:59;13.17;;;3.97;;
5923;SDS011;2987;50.884;14.818;2022-09-17T18:50:25;7.70;;;2.97;;
5923;SDS011;2987;50.884;14.818;2022-09-17T18:52:52;8.10;;;2.30;;
5923;SDS011;2987;50.884;14.818;2022-09-17T18:55:21;8.57;;;2.70;;
5923;SDS011;2987;50.884;14.818;2022-09-17T18:57:48;7.07;;;2.37;;
5923;SDS011;2987;50.884;14.818;2022-09-17T19:00:16;4.97;;;2.17;;